Time;durP1;ratioP1;P1;durP2;ratioP2;P2;SDS_P1;SDS_P2;PMS_P1;PMS_P2;Temp;Humidity;BMP_temperature;BMP_pressure;BME280_temperature;BME280_humidity;BME280_pressure;Samples;Min_cycle;Max_cycle;Signal;HPM_P1;HPM_P2
2024/01/12 00:00:23;;;;;;;37.83;19.80;;;0.20;99.90;;;;;;5038876;28;20169;-73
2024/01/12 00:02:49;;;;;;;39.97;19.87;;;0.20;99.90;;;;;;5038149;28;20057;-73
2024/01/12 00:05:15;;;;;;;44.37;21.37;;;0.20;99.90;;;;;;5039289;28;20072;-73
2024/01/12 00:07:41;;;;;;;52.93;23.30;;;0.20;99.90;;;;;;5019687;28;20045;-73
2024/01/12 00:10:08;;;;;;;39.27;19.87;;;0.20;99.90;;;;;;5038662;28;20040;-73
2024/01/12 00:12:34;;;;;;;36.77;19.53;;;0.20;99.90;;;;;;5039935;28;20049;-73
2024/01/12 00:15:00;;;;;;;47.03;23.10;;;0.30;99.90;;;;;;5039633;28;20041;-73
2024/01/12 00:17:26;;;;;;;36.13;19.50;;;0.30;99.90;;;;;;5038040;28;20131;-74
2024/01/12 00:19:52;;;;;;;43.57;21.40;;;0.40;99.90;;;;;;5014463;28;20041;-74
2024/01/12 00:22:17;;;;;;;40.07;20.30;;;0.40;99.90;;;;;;5036860;28;20049;-74
2024/01/12 00:24:43;;;;;;;38.03;19.73;;;0.40;99.90;;;;;;5038210;28;20184;-73
2024/01/12 00:27:09;;;;;;;43.70;22.77;;;0.50;99.90;;;;;;5019841;28;20170;-73
2024/01/12 00:29:34;;;;;;;41.03;20.47;;;0.60;99.90;;;;;;5037835;28;20048;-74
2024/01/12 00:32:00;;;;;;;39.10;21.27;;;0.60;99.90;;;;;;5037038;28;20092;-73
2024/01/12 00:34:26;;;;;;;43.20;22.43;;;0.60;99.90;;;;;;5038322;28;20111;-73
2024/01/12 00:36:53;;;;;;;43.53;22.63;;;0.70;99.90;;;;;;5037155;28;20072;-75
2024/01/12 00:39:19;;;;;;;39.97;20.47;;;0.70;99.90;;;;;;5037144;28;20093;-75
2024/01/12 00:41:45;;;;;;;36.53;19.83;;;0.70;99.90;;;;;;5051693;28;20083;-74
2024/01/12 00:44:11;;;;;;;43.27;21.23;;;0.70;99.90;;;;;;5038631;28;20088;-75
2024/01/12 00:46:36;;;;;;;35.10;19.40;;;0.70;99.90;;;;;;5035770;28;20100;-75
2024/01/12 00:49:02;;;;;;;42.30;19.87;;;0.70;99.90;;;;;;5034787;28;20532;-75
2024/01/12 00:51:28;;;;;;;40.73;21.17;;;0.70;99.90;;;;;;5039810;28;20532;-75
2024/01/12 00:53:54;;;;;;;38.07;20.93;;;0.70;99.90;;;;;;5034014;28;20071;-75
2024/01/12 00:56:19;;;;;;;40.43;20.77;;;0.80;99.90;;;;;;5037068;28;20106;-75
2024/01/12 00:58:45;;;;;;;39.90;21.13;;;0.80;99.90;;;;;;5033503;28;20041;-75
2024/01/12 01:01:11;;;;;;;41.90;20.30;;;0.80;99.90;;;;;;5038018;28;20056;-75
2024/01/12 01:03:37;;;;;;;44.80;23.23;;;0.80;99.90;;;;;;5035738;28;20419;-74
2024/01/12 01:06:03;;;;;;;44.20;23.00;;;0.90;99.90;;;;;;5037598;28;20673;-75
2024/01/12 01:08:29;;;;;;;42.83;21.13;;;0.90;99.90;;;;;;5038482;28;20071;-75
2024/01/12 01:10:55;;;;;;;40.50;21.37;;;0.90;99.90;;;;;;5035849;28;20042;-75
2024/01/12 01:13:21;;;;;;;32.33;16.97;;;0.90;99.90;;;;;;5036539;28;20466;-75
2024/01/12 01:15:47;;;;;;;58.93;26.23;;;0.90;99.90;;;;;;5033719;28;20103;-75
2024/01/12 01:18:12;;;;;;;48.47;24.20;;;0.90;99.90;;;;;;5037538;28;20037;-75
2024/01/12 01:20:38;;;;;;;43.80;22.67;;;0.90;99.90;;;;;;5036476;28;20045;-75
2024/01/12 01:23:04;;;;;;;41.77;21.07;;;0.90;99.90;;;;;;5035993;28;20050;-76
2024/01/12 01:25:30;;;;;;;40.07;21.80;;;0.90;99.90;;;;;;5034709;28;20458;-76
2024/01/12 01:27:56;;;;;;;37.67;21.63;;;0.90;99.90;;;;;;5034619;28;20053;-75
2024/01/12 01:30:21;;;;;;;35.13;20.30;;;0.90;99.90;;;;;;5037308;28;20048;-75
2024/01/12 01:32:48;;;;;;;42.37;21.83;;;0.90;99.90;;;;;;5033658;28;20391;-75
2024/01/12 01:35:15;;;;;;;41.13;22.77;;;0.90;99.90;;;;;;5039043;28;20656;-75
2024/01/12 01:37:41;;;;;;;33.17;17.50;;;0.90;99.90;;;;;;5035846;28;20037;-75
2024/01/12 01:40:07;;;;;;;41.83;22.50;;;0.90;99.90;;;;;;5035409;28;20080;-75
2024/01/12 01:42:34;;;;;;;40.30;21.97;;;1.00;99.90;;;;;;5035650;28;20075;-76
2024/01/12 01:45:00;;;;;;;38.67;21.40;;;1.00;99.90;;;;;;5033664;28;20109;-76
2024/01/12 01:47:27;;;;;;;41.23;23.00;;;1.00;99.90;;;;;;5035041;28;20176;-76
2024/01/12 01:49:53;;;;;;;37.30;21.50;;;1.00;99.90;;;;;;5035344;28;20044;-76
2024/01/12 01:52:21;;;;;;;36.37;20.47;;;1.00;99.90;;;;;;5035447;28;20049;-76
2024/01/12 01:54:47;;;;;;;37.47;21.90;;;1.10;99.90;;;;;;5035768;28;20052;-76
2024/01/12 01:57:14;;;;;;;42.60;22.03;;;1.10;99.90;;;;;;5034416;28;20498;-75
2024/01/12 01:59:41;;;;;;;31.60;17.77;;;1.10;99.90;;;;;;5037270;28;20045;-76
2024/01/12 02:02:08;;;;;;;30.40;17.67;;;1.10;99.90;;;;;;5036193;28;20052;-76
2024/01/12 02:04:34;;;;;;;37.50;16.57;;;1.20;99.90;;;;;;5035481;28;20544;-75
2024/01/12 02:07:00;;;;;;;26.83;15.77;;;1.30;99.90;;;;;;5010746;28;20037;-76
2024/01/12 02:09:28;;;;;;;33.00;18.87;;;1.30;99.90;;;;;;5036134;28;20049;-75
2024/01/12 02:11:54;;;;;;;30.03;16.93;;;1.40;99.90;;;;;;5036382;28;20046;-75
2024/01/12 02:14:20;;;;;;;35.07;18.20;;;1.40;99.90;;;;;;5035574;28;20047;-75
2024/01/12 02:16:46;;;;;;;33.10;18.17;;;1.50;99.90;;;;;;5037033;28;20056;-76
2024/01/12 02:19:12;;;;;;;38.33;20.30;;;1.50;99.90;;;;;;5036360;28;20403;-75
2024/01/12 02:21:37;;;;;;;25.40;15.73;;;1.40;99.90;;;;;;5039150;28;20080;-75
2024/01/12 02:24:03;;;;;;;34.93;16.10;;;1.40;99.90;;;;;;5034675;28;20109;-75
2024/01/12 02:26:29;;;;;;;29.50;14.80;;;1.40;99.90;;;;;;5035765;28;20455;-75
2024/01/12 02:28:56;;;;;;;29.87;17.63;;;1.50;99.90;;;;;;5033787;28;20049;-75
2024/01/12 02:31:22;;;;;;;28.00;12.80;;;1.50;99.90;;;;;;5035854;28;20052;-75
2024/01/12 02:33:49;;;;;;;31.27;14.93;;;1.60;99.90;;;;;;5035423;28;20045;-75
2024/01/12 02:36:15;;;;;;;30.37;15.23;;;1.70;99.90;;;;;;5034945;28;20057;-76
2024/01/12 02:38:41;;;;;;;33.17;16.93;;;1.70;99.90;;;;;;5037812;28;20041;-75
2024/01/12 02:41:07;;;;;;;26.07;13.07;;;1.70;99.90;;;;;;5035787;28;20055;-75
2024/01/12 02:43:33;;;;;;;21.93;13.67;;;1.70;99.90;;;;;;5037053;28;20049;-76
2024/01/12 02:45:58;;;;;;;20.40;12.27;;;1.70;99.90;;;;;;5043112;28;20045;-75
2024/01/12 02:48:24;;;;;;;19.37;12.50;;;1.80;99.90;;;;;;5041332;28;20057;-75
2024/01/12 02:50:50;;;;;;;24.17;12.40;;;1.80;99.90;;;;;;5041156;28;20041;-75
2024/01/12 02:53:17;;;;;;;25.30;12.40;;;1.80;99.90;;;;;;5036305;28;20071;-75
2024/01/12 02:55:43;;;;;;;20.90;10.90;;;1.80;99.90;;;;;;5039219;28;20045;-75
2024/01/12 02:58:08;;;;;;;19.63;10.50;;;1.80;99.90;;;;;;5038171;28;20075;-75
2024/01/12 03:00:34;;;;;;;18.37;11.10;;;1.90;99.90;;;;;;5037459;28;20041;-75
2024/01/12 03:03:00;;;;;;;19.13;10.83;;;1.90;99.90;;;;;;5035529;28;20110;-74
2024/01/12 03:05:25;;;;;;;19.00;10.73;;;1.90;99.90;;;;;;5038858;28;20056;-75
2024/01/12 03:07:51;;;;;;;22.73;12.63;;;1.90;99.90;;;;;;5037798;28;20064;-75
2024/01/12 03:10:17;;;;;;;19.90;11.20;;;1.90;99.90;;;;;;5039964;28;20045;-75
2024/01/12 03:12:43;;;;;;;21.43;12.73;;;1.80;99.90;;;;;;5038824;28;20112;-75
2024/01/12 03:15:09;;;;;;;19.40;11.33;;;1.80;99.90;;;;;;5039909;28;20649;-76
2024/01/12 03:17:34;;;;;;;17.80;11.23;;;1.70;99.90;;;;;;5053961;28;21247;-75
2024/01/12 03:20:00;;;;;;;17.37;10.73;;;1.70;99.90;;;;;;5035784;28;20046;-74
2024/01/12 03:22:26;;;;;;;17.83;11.20;;;1.70;99.90;;;;;;5037826;28;20092;-75
2024/01/12 03:24:51;;;;;;;19.63;11.13;;;1.70;99.90;;;;;;5038668;28;20124;-76
2024/01/12 03:27:17;;;;;;;15.40;10.10;;;1.70;99.90;;;;;;5035241;28;20334;-76
2024/01/12 03:29:43;;;;;;;17.00;11.30;;;1.60;99.90;;;;;;5039216;28;20048;-75
2024/01/12 03:32:08;;;;;;;19.03;11.70;;;1.60;99.90;;;;;;5037940;28;20433;-75
2024/01/12 03:34:34;;;;;;;20.97;13.40;;;1.60;99.90;;;;;;5039846;28;20530;-73
2024/01/12 03:37:00;;;;;;;26.10;14.43;;;1.60;99.90;;;;;;5037472;28;20124;-74
2024/01/12 03:39:25;;;;;;;26.97;14.43;;;1.60;99.90;;;;;;5040930;28;20049;-74
2024/01/12 03:41:51;;;;;;;23.80;15.30;;;1.50;99.90;;;;;;5037231;28;20136;-74
2024/01/12 03:44:17;;;;;;;28.20;16.50;;;1.50;99.90;;;;;;5036151;28;20037;-75
2024/01/12 03:46:42;;;;;;;22.50;13.77;;;1.50;99.90;;;;;;5039102;28;20079;-74
2024/01/12 03:49:08;;;;;;;23.47;14.70;;;1.50;99.90;;;;;;5037274;28;20085;-74
2024/01/12 03:51:34;;;;;;;22.63;14.13;;;1.50;99.90;;;;;;5038879;28;20049;-74
2024/01/12 03:53:59;;;;;;;22.80;13.97;;;1.50;99.90;;;;;;5037374;28;20049;-74
2024/01/12 03:56:25;;;;;;;26.80;15.00;;;1.50;99.90;;;;;;5035965;28;20052;-74
2024/01/12 03:58:50;;;;;;;23.13;13.27;;;1.50;99.90;;;;;;5037490;28;20289;-74
2024/01/12 04:01:17;;;;;;;21.93;13.10;;;1.50;99.90;;;;;;5037100;28;20071;-74
2024/01/12 04:03:43;;;;;;;20.77;13.57;;;1.50;99.90;;;;;;5038173;28;20041;-73
2024/01/12 04:06:09;;;;;;;20.70;13.80;;;1.40;99.90;;;;;;5037661;28;20044;-74
2024/01/12 04:08:35;;;;;;;19.47;12.93;;;1.30;99.90;;;;;;5020519;28;20045;-73
2024/01/12 04:11:01;;;;;;;21.20;11.93;;;1.30;99.90;;;;;;5033894;28;20050;-73
2024/01/12 04:13:26;;;;;;;17.77;11.73;;;1.20;99.90;;;;;;5040125;28;20049;-73
2024/01/12 04:15:53;;;;;;;17.83;11.87;;;1.10;99.90;;;;;;5037826;28;20988;-73
2024/01/12 04:18:18;;;;;;;19.47;12.90;;;1.10;99.90;;;;;;5037349;28;20470;-73
2024/01/12 04:20:44;;;;;;;18.30;12.17;;;1.10;99.90;;;;;;5038291;28;20133;-73
2024/01/12 04:23:10;;;;;;;17.83;11.77;;;1.00;99.90;;;;;;5036648;28;20041;-74
2024/01/12 04:25:36;;;;;;;26.23;15.17;;;1.00;99.90;;;;;;5037993;28;20057;-74
2024/01/12 04:28:01;;;;;;;19.57;11.70;;;0.90;99.90;;;;;;5036386;28;20048;-74
2024/01/12 04:30:27;;;;;;;17.63;12.10;;;0.90;99.90;;;;;;5039946;28;20061;-74
2024/01/12 04:32:53;;;;;;;21.00;12.13;;;0.90;99.90;;;;;;5034682;28;20054;-74
2024/01/12 04:35:19;;;;;;;20.40;12.80;;;0.90;99.90;;;;;;5021560;28;20045;-74
2024/01/12 04:37:44;;;;;;;15.17;11.00;;;0.90;99.90;;;;;;5038511;28;20480;-74
2024/01/12 04:40:10;;;;;;;19.30;12.43;;;0.90;99.90;;;;;;5037252;28;20079;-74
2024/01/12 04:42:36;;;;;;;20.03;12.57;;;1.00;99.90;;;;;;5035489;28;20088;-75
2024/01/12 04:45:02;;;;;;;19.20;11.83;;;1.00;99.90;;;;;;5038938;28;20041;-74
2024/01/12 04:47:27;;;;;;;19.67;11.90;;;1.00;99.90;;;;;;5039203;28;20049;-74
2024/01/12 04:49:53;;;;;;;21.43;13.77;;;1.00;99.90;;;;;;5036162;28;20176;-75
2024/01/12 04:52:19;;;;;;;19.77;11.23;;;1.00;99.90;;;;;;5037463;28;20069;-74
2024/01/12 04:54:44;;;;;;;23.57;10.67;;;1.10;99.90;;;;;;5038314;28;20041;-74
2024/01/12 04:57:10;;;;;;;17.47;12.57;;;1.10;99.90;;;;;;5034952;28;20476;-74
2024/01/12 04:59:36;;;;;;;18.80;11.90;;;1.20;99.90;;;;;;5037641;28;20057;-73
2024/01/12 05:02:01;;;;;;;22.87;11.93;;;1.20;99.90;;;;;;5034112;28;20041;-73
2024/01/12 05:04:27;;;;;;;21.93;11.33;;;1.30;99.90;;;;;;5035536;28;20092;-73
2024/01/12 05:06:53;;;;;;;26.73;12.27;;;1.40;99.90;;;;;;5037795;28;20076;-73
2024/01/12 05:09:18;;;;;;;26.40;13.63;;;1.50;99.90;;;;;;5036886;28;20049;-73
2024/01/12 05:11:44;;;;;;;22.60;13.40;;;1.50;99.90;;;;;;5040550;28;20040;-74
2024/01/12 05:14:10;;;;;;;30.77;12.77;;;1.50;99.90;;;;;;5036335;28;20042;-73
2024/01/12 05:16:36;;;;;;;32.33;12.33;;;1.60;99.90;;;;;;5037266;28;20107;-74
2024/01/12 05:19:02;;;;;;;30.80;13.00;;;1.60;99.90;;;;;;5016359;28;20037;-73
2024/01/12 05:21:27;;;;;;;27.87;12.00;;;1.70;99.90;;;;;;5036688;28;20569;-73
2024/01/12 05:23:53;;;;;;;28.73;11.67;;;1.80;99.90;;;;;;5035373;28;20037;-74
2024/01/12 05:26:19;;;;;;;23.77;11.17;;;1.80;99.90;;;;;;5036071;28;20049;-74
2024/01/12 05:28:44;;;;;;;25.67;11.90;;;1.90;99.90;;;;;;5020939;28;20053;-73
2024/01/12 05:31:10;;;;;;;20.17;10.47;;;1.90;99.90;;;;;;5035582;28;20041;-74
2024/01/12 05:33:36;;;;;;;24.80;11.13;;;1.80;99.90;;;;;;5032534;28;20075;-74
2024/01/12 05:36:02;;;;;;;27.13;11.90;;;1.90;99.90;;;;;;5036250;28;20029;-74
2024/01/12 05:38:28;;;;;;;28.23;13.00;;;1.80;99.90;;;;;;5037652;28;20053;-73
2024/01/12 05:40:53;;;;;;;23.93;10.87;;;1.80;99.90;;;;;;5037112;28;20061;-74
2024/01/12 05:43:19;;;;;;;19.13;9.53;;;1.80;99.90;;;;;;5038320;28;20052;-74
2024/01/12 05:45:45;;;;;;;21.10;10.87;;;1.70;99.90;;;;;;5036786;28;20037;-74
2024/01/12 05:48:12;;;;;;;21.37;10.07;;;1.60;99.90;;;;;;5034573;28;20045;-73
2024/01/12 05:50:38;;;;;;;21.93;10.43;;;1.70;99.90;;;;;;5036972;28;20045;-73
2024/01/12 05:53:05;;;;;;;22.03;11.43;;;1.60;99.90;;;;;;5034861;28;20095;-73
2024/01/12 05:55:31;;;;;;;24.43;11.27;;;1.70;99.90;;;;;;5036035;28;20060;-74
2024/01/12 05:57:56;;;;;;;17.87;10.80;;;1.70;99.90;;;;;;5017058;28;20046;-74
2024/01/12 06:00:22;;;;;;;21.83;12.00;;;1.70;99.90;;;;;;5034988;28;20037;-74
2024/01/12 06:02:48;;;;;;;24.23;10.80;;;1.70;99.90;;;;;;5034659;28;20134;-74
2024/01/12 06:05:13;;;;;;;19.70;10.30;;;1.70;99.90;;;;;;5034751;28;20425;-74
2024/01/12 06:07:39;;;;;;;26.07;11.27;;;1.60;99.90;;;;;;5038836;28;20045;-74
2024/01/12 06:10:07;;;;;;;23.53;10.30;;;1.60;99.90;;;;;;5033093;28;20448;-73
2024/01/12 06:12:33;;;;;;;21.13;10.57;;;1.60;99.90;;;;;;5033684;28;20049;-74
2024/01/12 06:14:59;;;;;;;22.57;11.10;;;1.60;99.90;;;;;;5034575;28;20076;-74
2024/01/12 06:17:25;;;;;;;19.90;10.93;;;1.60;99.90;;;;;;5036962;28;20049;-74
2024/01/12 06:19:51;;;;;;;20.20;10.60;;;1.60;99.90;;;;;;5033130;28;20068;-74
2024/01/12 06:22:17;;;;;;;16.70;9.63;;;1.60;99.90;;;;;;5032680;28;20041;-74
2024/01/12 06:24:42;;;;;;;21.70;10.57;;;1.60;99.90;;;;;;5034520;28;20369;-74
2024/01/12 06:27:08;;;;;;;24.10;9.90;;;1.50;99.90;;;;;;5036099;28;20468;-75
2024/01/12 06:29:35;;;;;;;27.00;11.47;;;1.50;99.90;;;;;;5035751;28;20057;-74
2024/01/12 06:32:03;;;;;;;24.27;10.53;;;1.60;99.90;;;;;;5035743;28;20532;-74
2024/01/12 06:34:29;;;;;;;23.80;10.03;;;1.60;99.90;;;;;;5036250;28;20049;-75
2024/01/12 06:36:56;;;;;;;24.37;10.83;;;1.60;99.90;;;;;;5035784;28;20053;-74
2024/01/12 06:39:22;;;;;;;24.73;10.53;;;1.60;99.90;;;;;;5032344;28;20038;-74
2024/01/12 06:41:48;;;;;;;27.13;11.30;;;1.60;99.90;;;;;;5032678;28;20053;-74
2024/01/12 06:44:14;;;;;;;26.00;12.17;;;1.60;99.90;;;;;;5034333;28;20595;-74
2024/01/12 06:46:43;;;;;;;36.07;12.67;;;1.60;99.90;;;;;;5029983;28;20077;-74
2024/01/12 06:49:09;;;;;;;34.27;12.43;;;1.60;99.90;;;;;;5034605;28;20103;-74
2024/01/12 06:51:35;;;;;;;35.33;11.87;;;1.60;99.90;;;;;;5036932;28;20049;-74
2024/01/12 06:54:01;;;;;;;31.20;11.93;;;1.60;99.90;;;;;;5016984;28;20084;-73
2024/01/12 06:56:27;;;;;;;28.90;12.07;;;1.70;99.90;;;;;;5034077;28;20051;-74
2024/01/12 06:58:53;;;;;;;32.47;12.37;;;1.70;99.90;;;;;;5032622;28;20128;-73
2024/01/12 07:01:19;;;;;;;33.23;12.60;;;1.70;99.90;;;;;;5036154;28;20057;-73
2024/01/12 07:03:45;;;;;;;31.30;11.80;;;1.70;99.90;;;;;;5031126;28;20071;-74
2024/01/12 07:06:11;;;;;;;38.53;13.77;;;1.70;99.90;;;;;;5030483;28;20050;-74
2024/01/12 07:08:37;;;;;;;41.40;13.30;;;1.70;99.90;;;;;;5034611;28;20048;-74
2024/01/12 07:11:03;;;;;;;31.27;11.43;;;1.70;99.90;;;;;;5033768;28;20077;-74
2024/01/12 07:13:29;;;;;;;31.97;11.37;;;1.60;99.90;;;;;;5034795;28;20049;-74
2024/01/12 07:15:55;;;;;;;44.63;12.97;;;1.60;99.90;;;;;;5033988;28;20040;-76
2024/01/12 07:18:20;;;;;;;30.20;11.03;;;1.60;99.90;;;;;;5034374;28;20072;-73
2024/01/12 07:20:46;;;;;;;31.43;13.17;;;1.60;99.90;;;;;;5033284;28;20461;-73
2024/01/12 07:23:12;;;;;;;38.83;14.37;;;1.70;99.90;;;;;;5033868;28;20046;-74
2024/01/12 07:25:38;;;;;;;39.03;14.77;;;1.70;99.90;;;;;;5034602;28;20053;-75
2024/01/12 07:28:08;;;;;;;56.27;16.90;;;1.70;99.90;;;;;;5043689;28;20045;-73
2024/01/12 07:30:33;;;;;;;36.77;13.17;;;1.70;99.90;;;;;;5035477;28;20536;-70
2024/01/12 07:32:59;;;;;;;36.13;14.47;;;1.70;99.90;;;;;;5036996;28;20109;-73
2024/01/12 07:35:25;;;;;;;28.50;12.20;;;1.70;99.90;;;;;;5035667;28;20069;-73
2024/01/12 07:37:51;;;;;;;38.10;13.47;;;1.80;99.90;;;;;;5031721;28;20045;-73
2024/01/12 07:40:17;;;;;;;35.00;12.93;;;1.80;99.90;;;;;;5035482;28;20088;-75
2024/01/12 07:42:43;;;;;;;44.20;15.20;;;1.80;99.90;;;;;;5050194;28;20141;-75
2024/01/12 07:45:11;;;;;;;32.03;13.03;;;1.80;99.90;;;;;;5043218;28;20097;-75
2024/01/12 07:47:37;;;;;;;38.57;13.77;;;1.80;99.90;;;;;;5049468;28;20047;-75
2024/01/12 07:50:03;;;;;;;32.73;13.43;;;1.80;99.90;;;;;;5038332;28;20591;-76
2024/01/12 07:52:28;;;;;;;31.30;11.77;;;1.80;99.90;;;;;;5043052;28;20101;-75
2024/01/12 07:54:54;;;;;;;33.77;13.33;;;1.80;99.90;;;;;;5048278;28;20044;-75
2024/01/12 07:57:20;;;;;;;30.20;11.33;;;1.80;99.90;;;;;;5041112;28;20500;-75
2024/01/12 07:59:45;;;;;;;25.67;12.07;;;1.80;99.90;;;;;;5046152;28;20045;-75
2024/01/12 08:02:11;;;;;;;23.87;11.63;;;1.80;99.90;;;;;;5036427;28;20899;-76
2024/01/12 08:04:40;;;;;;;24.10;11.60;;;1.80;99.90;;;;;;5039096;28;20038;-76
2024/01/12 08:07:06;;;;;;;22.47;10.77;;;1.90;99.90;;;;;;5039948;28;20041;-75
2024/01/12 08:09:32;;;;;;;29.00;11.17;;;1.90;99.90;;;;;;5038478;28;20506;-76
2024/01/12 08:11:58;;;;;;;22.43;10.93;;;1.90;99.90;;;;;;5036762;28;20575;-75
2024/01/12 08:14:23;;;;;;;24.90;11.80;;;1.90;99.90;;;;;;5038855;28;20049;-76
2024/01/12 08:16:49;;;;;;;25.90;11.03;;;2.00;99.90;;;;;;5039161;28;20049;-76
2024/01/12 08:19:15;;;;;;;23.07;10.60;;;2.00;99.90;;;;;;5052488;28;20541;-76
2024/01/12 08:21:41;;;;;;;17.67;9.80;;;2.00;99.90;;;;;;5043091;28;20040;-76
2024/01/12 08:24:07;;;;;;;37.70;12.63;;;2.00;99.90;;;;;;5036766;28;20049;-76
2024/01/12 08:26:33;;;;;;;19.83;9.97;;;2.00;99.90;;;;;;5040273;28;20063;-76
2024/01/12 08:29:01;;;;;;;23.73;10.03;;;2.00;99.90;;;;;;5044541;28;20057;-76
2024/01/12 08:31:28;;;;;;;23.17;10.37;;;2.00;99.90;;;;;;5052751;28;20843;-76
2024/01/12 08:33:54;;;;;;;20.60;9.83;;;2.00;99.90;;;;;;5022414;28;20057;-75
2024/01/12 08:36:20;;;;;;;27.27;10.13;;;2.10;99.90;;;;;;5052440;28;20041;-76
2024/01/12 08:38:45;;;;;;;21.60;10.33;;;2.00;99.90;;;;;;5036563;28;20056;-75
2024/01/12 08:41:11;;;;;;;20.43;9.70;;;2.10;99.90;;;;;;5035536;28;20057;-76
2024/01/12 08:43:37;;;;;;;16.50;8.93;;;2.10;99.90;;;;;;5036739;28;20051;-75
2024/01/12 08:46:03;;;;;;;20.87;10.23;;;2.10;99.90;;;;;;5042865;28;20068;-75
2024/01/12 08:48:29;;;;;;;18.37;9.77;;;2.10;99.90;;;;;;5036786;28;20077;-76
2024/01/12 08:50:55;;;;;;;18.73;9.30;;;2.10;99.90;;;;;;5037565;28;20045;-75
2024/01/12 08:53:20;;;;;;;17.37;9.77;;;2.20;99.90;;;;;;5030824;28;20098;-76
2024/01/12 08:55:46;;;;;;;24.43;10.07;;;2.20;99.90;;;;;;5038094;28;20050;-74
2024/01/12 08:58:12;;;;;;;15.97;8.60;;;2.20;99.90;;;;;;5047244;28;20052;-76
2024/01/12 09:00:37;;;;;;;20.03;9.30;;;2.20;99.90;;;;;;5037829;28;20041;-75
2024/01/12 09:03:03;;;;;;;20.80;9.67;;;2.20;99.90;;;;;;5020519;28;20104;-76
2024/01/12 09:05:29;;;;;;;21.27;9.87;;;2.30;99.90;;;;;;5038828;28;20116;-80
2024/01/12 09:07:55;;;;;;;20.67;8.90;;;2.30;99.90;;;;;;5037148;28;20102;-75
2024/01/12 09:10:20;;;;;;;17.40;8.63;;;2.30;99.90;;;;;;5036284;28;20117;-75
2024/01/12 09:12:46;;;;;;;22.63;9.13;;;2.30;99.90;;;;;;5033580;28;20045;-74
2024/01/12 09:15:11;;;;;;;20.00;8.17;;;2.30;99.90;;;;;;5035019;28;20053;-74
2024/01/12 09:17:37;;;;;;;18.77;9.03;;;2.40;99.90;;;;;;5039833;28;20068;-76
2024/01/12 09:20:03;;;;;;;16.77;9.23;;;2.40;99.90;;;;;;5031893;28;20039;-73
2024/01/12 09:22:29;;;;;;;20.50;9.23;;;2.40;99.90;;;;;;5037049;28;20109;-74
2024/01/12 09:24:55;;;;;;;18.73;8.83;;;2.40;99.90;;;;;;5038988;28;20096;-76
2024/01/12 09:27:21;;;;;;;14.53;8.40;;;2.40;99.90;;;;;;5042297;28;20029;-73
2024/01/12 09:29:47;;;;;;;16.17;8.60;;;2.50;99.90;;;;;;5045702;28;20128;-77
2024/01/12 09:32:12;;;;;;;21.43;8.93;;;2.50;99.90;;;;;;5039059;28;20273;-77
2024/01/12 09:34:38;;;;;;;18.60;8.70;;;2.50;99.90;;;;;;5035836;28;20226;-76
2024/01/12 09:37:04;;;;;;;14.97;8.23;;;2.50;99.90;;;;;;5034770;28;20048;-76
2024/01/12 09:39:32;;;;;;;14.97;8.00;;;2.60;99.90;;;;;;5035408;28;20543;-75
2024/01/12 09:42:03;;;;;;;18.33;8.83;;;2.60;99.90;;;;;;5043965;28;20049;-76
2024/01/12 09:44:36;;;;;;;16.92;7.75;;;2.70;99.90;;;;;;5029300;28;20056;-73
2024/01/12 09:47:02;;;;;;;16.43;7.87;;;2.70;99.90;;;;;;5031286;28;20065;-76
2024/01/12 09:49:29;;;;;;;21.80;8.57;;;2.70;99.90;;;;;;5032388;28;20076;-76
2024/01/12 09:51:57;;;;;;;13.60;8.10;;;2.70;99.90;;;;;;5032455;28;20048;-77
2024/01/12 09:54:23;;;;;;;16.37;7.87;;;2.70;99.90;;;;;;5030960;28;20041;-77
2024/01/12 09:56:48;;;;;;;14.93;7.83;;;2.70;99.90;;;;;;5012360;28;20045;-76
2024/01/12 09:59:16;;;;;;;17.63;7.90;;;2.80;99.90;;;;;;5002515;28;20133;-76
2024/01/12 10:01:42;;;;;;;18.23;7.60;;;2.80;99.90;;;;;;5013065;28;20034;-76
2024/01/12 10:04:09;;;;;;;16.77;8.10;;;2.80;99.90;;;;;;5051627;28;20146;-76
2024/01/12 10:06:36;;;;;;;17.70;6.70;;;2.80;99.90;;;;;;5011872;28;20037;-76
2024/01/12 10:09:02;;;;;;;20.27;7.23;;;2.90;99.90;;;;;;5037137;28;20045;-76
2024/01/12 10:11:28;;;;;;;16.27;7.40;;;2.90;99.90;;;;;;5016781;28;20164;-76
2024/01/12 10:13:54;;;;;;;17.17;7.00;;;3.00;99.90;;;;;;5010920;28;20053;-76
2024/01/12 10:16:20;;;;;;;17.47;7.33;;;3.00;99.90;;;;;;5027145;28;20125;-77
2024/01/12 10:18:46;;;;;;;18.57;6.23;;;3.10;99.90;;;;;;5032748;28;20045;-75
2024/01/12 10:21:14;;;;;;;13.43;6.10;;;3.10;99.90;;;;;;5048450;28;20047;-76
2024/01/12 10:23:43;;;;;;;20.27;7.10;;;3.20;99.90;;;;;;5032316;28;20046;-76
2024/01/12 10:26:15;;;;;;;16.97;6.67;;;3.20;99.90;;;;;;5035630;28;20032;-76
2024/01/12 10:28:42;;;;;;;17.63;6.30;;;3.30;99.90;;;;;;5033411;28;20050;-74
2024/01/12 10:31:08;;;;;;;18.23;5.90;;;3.40;99.90;;;;;;5027733;28;20029;-74
2024/01/12 10:33:34;;;;;;;15.93;5.93;;;3.40;99.90;;;;;;5042054;28;20057;-75
2024/01/12 10:36:21;;;;;;;20.07;6.70;;;3.50;99.90;;;;;;5035489;28;20119;-75
2024/01/12 10:38:48;;;;;;;21.30;6.63;;;3.50;99.90;;;;;;5016112;28;20053;-75
2024/01/12 10:41:18;;;;;;;18.80;6.30;;;3.50;99.90;;;;;;5040020;28;20061;-75
2024/01/12 10:43:46;;;;;;;17.93;6.07;;;3.60;99.90;;;;;;5033230;28;20046;-75
2024/01/12 10:46:20;;;;;;;18.30;6.03;;;3.60;99.90;;;;;;5030798;28;20054;-74
2024/01/12 10:48:54;;;;;;;17.03;5.80;;;3.70;99.90;;;;;;5035848;28;20098;-75
2024/01/12 10:51:22;;;;;;;15.00;5.63;;;3.80;99.90;;;;;;5035172;28;20041;-73
2024/01/12 10:54:13;;;;;;;21.50;5.90;;;3.80;99.90;;;;;;5031244;28;20045;-74
2024/01/12 10:56:41;;;;;;;19.53;5.77;;;3.90;99.90;;;;;;5026638;28;20053;-75
2024/01/12 10:59:07;;;;;;;21.83;5.70;;;3.90;99.90;;;;;;5029232;28;20041;-75
2024/01/12 11:01:34;;;;;;;23.77;5.93;;;4.00;99.90;;;;;;5041533;28;20049;-75
2024/01/12 11:04:03;;;;;;;18.03;5.67;;;4.00;99.90;;;;;;5034828;28;20128;-75
2024/01/12 11:06:29;;;;;;;18.70;5.73;;;4.10;99.90;;;;;;5028984;28;20054;-74
2024/01/12 11:08:56;;;;;;;16.33;5.23;;;4.10;99.90;;;;;;5037140;28;20054;-74
2024/01/12 11:11:29;;;;;;;16.33;5.17;;;4.10;99.90;;;;;;5035945;28;20056;-75
2024/01/12 11:13:55;;;;;;;18.67;4.47;;;4.20;99.90;;;;;;5031404;28;20117;-75
2024/01/12 11:16:21;;;;;;;11.93;4.50;;;4.20;99.90;;;;;;5036981;28;20559;-75
2024/01/12 11:18:47;;;;;;;12.43;3.90;;;4.20;99.90;;;;;;5033375;28;20073;-75
2024/01/12 11:21:23;;;;;;;13.60;4.13;;;4.30;99.90;;;;;;5036150;28;20092;-75
2024/01/12 11:23:49;;;;;;;15.43;4.10;;;4.30;99.90;;;;;;5041783;28;20521;-75
2024/01/12 11:26:15;;;;;;;14.33;3.67;;;4.40;99.90;;;;;;5036982;28;20113;-76
2024/01/12 11:28:40;;;;;;;12.60;4.23;;;4.40;99.90;;;;;;5035516;28;20324;-75
2024/01/12 11:31:06;;;;;;;14.53;3.93;;;4.40;99.90;;;;;;5046015;28;20044;-76
2024/01/12 11:33:41;;;;;;;13.03;3.63;;;4.40;99.90;;;;;;5046300;28;20567;-77
2024/01/12 11:36:14;;;;;;;12.60;4.00;;;4.40;99.90;;;;;;5039297;28;20049;-77
2024/01/12 11:38:40;;;;;;;17.27;4.50;;;4.40;99.90;;;;;;5034918;28;20064;-77
2024/01/12 11:41:12;;;;;;;18.67;4.60;;;4.40;99.90;;;;;;5033515;28;20121;-76
2024/01/12 11:43:38;;;;;;;17.60;4.17;;;4.40;99.90;;;;;;5036412;28;20053;-75
2024/01/12 11:46:05;;;;;;;14.47;3.87;;;4.50;99.90;;;;;;5036380;28;20057;-76
2024/01/12 11:48:32;;;;;;;23.03;4.37;;;4.50;99.90;;;;;;5038180;28;20053;-76
2024/01/12 11:50:58;;;;;;;15.17;5.13;;;4.50;99.90;;;;;;5036297;28;20045;-75
2024/01/12 11:53:24;;;;;;;16.67;4.73;;;4.60;99.90;;;;;;5040463;28;20040;-76
2024/01/12 11:55:49;;;;;;;18.07;4.43;;;4.60;99.90;;;;;;5039853;28;20045;-76
2024/01/12 11:58:15;;;;;;;17.90;5.00;;;4.60;99.90;;;;;;5041395;28;20037;-76
2024/01/12 12:00:41;;;;;;;17.07;4.63;;;4.60;99.90;;;;;;5041482;28;20171;-76
2024/01/12 12:03:10;;;;;;;16.47;4.60;;;4.60;99.90;;;;;;5036892;28;20069;-77
2024/01/12 12:05:35;;;;;;;16.13;4.50;;;4.60;99.90;;;;;;5036683;28;20060;-76
2024/01/12 12:08:02;;;;;;;22.03;5.07;;;4.60;99.90;;;;;;5035587;28;20045;-76
2024/01/12 12:10:28;;;;;;;13.93;4.50;;;4.60;99.90;;;;;;5029348;28;20673;-77
2024/01/12 12:12:54;;;;;;;16.23;4.10;;;4.60;99.90;;;;;;5034364;28;20046;-76
2024/01/12 12:15:20;;;;;;;22.80;4.80;;;4.60;99.90;;;;;;5037446;28;20041;-77
2024/01/12 12:17:48;;;;;;;20.40;4.73;;;4.60;99.90;;;;;;5051338;28;20052;-77
2024/01/12 12:20:13;;;;;;;20.57;4.30;;;4.70;99.90;;;;;;5038874;28;20044;-77
2024/01/12 12:22:45;;;;;;;19.60;4.83;;;4.60;99.90;;;;;;5045020;28;20552;-77
2024/01/12 12:25:13;;;;;;;16.90;4.28;;;4.60;99.90;;;;;;5039381;28;20063;-76
2024/01/12 12:27:39;;;;;;;14.90;4.33;;;4.60;99.90;;;;;;5032385;28;20088;-77
2024/01/12 12:30:07;;;;;;;16.87;4.53;;;4.60;99.90;;;;;;5036394;28;20045;-76
2024/01/12 12:32:33;;;;;;;15.80;4.57;;;4.60;99.90;;;;;;5036438;28;20398;-78
2024/01/12 12:34:59;;;;;;;12.77;4.63;;;4.60;99.90;;;;;;5037677;28;20097;-77